createdAt,value
2023-01-19T00:01:01.774Z,19.35
2023-01-19T00:03:29.276Z,19.85
2023-01-19T00:05:56.977Z,17.95
2023-01-19T00:08:24.285Z,23.85
2023-01-19T00:10:51.804Z,22.67
2023-01-19T00:13:19.244Z,21.63
2023-01-19T00:15:47.053Z,21.42
2023-01-19T00:18:14.405Z,22.67
2023-01-19T00:20:42.246Z,20.70
2023-01-19T00:23:09.645Z,25.33
2023-01-19T00:25:45.365Z,26.60
2023-01-19T00:28:14.892Z,21.63
2023-01-19T00:30:43.306Z,29.42
2023-01-19T00:33:11.424Z,22.52
2023-01-19T00:35:39.169Z,26.42
2023-01-19T00:38:06.452Z,27.67
2023-01-19T00:40:34.000Z,29.15
2023-01-19T00:43:01.809Z,26.80
2023-01-19T00:45:29.799Z,28.08
2023-01-19T00:47:57.365Z,30.73
2023-01-19T00:50:27.214Z,26.65
2023-01-19T00:52:56.170Z,29.50
2023-01-19T00:55:24.079Z,33.97
2023-01-19T00:57:51.352Z,32.92
2023-01-19T01:00:20.024Z,30.55
2023-01-19T01:02:48.973Z,27.80
2023-01-19T01:05:17.542Z,28.13
2023-01-19T01:07:45.494Z,27.95
2023-01-19T01:10:19.572Z,26.33
2023-01-19T01:12:55.938Z,27.00
2023-01-19T01:15:26.672Z,30.30
2023-01-19T01:17:54.621Z,28.23
2023-01-19T01:20:28.161Z,26.33
2023-01-19T01:22:56.588Z,26.33
2023-01-19T01:25:26.070Z,27.20
2023-01-19T01:27:55.534Z,27.02
2023-01-19T01:30:23.756Z,24.52
2023-01-19T01:32:51.047Z,25.45
2023-01-19T01:35:18.939Z,29.27
2023-01-19T01:37:46.171Z,28.75
2023-01-19T01:40:16.999Z,27.15
2023-01-19T01:42:45.553Z,27.95
2023-01-19T01:45:34.493Z,25.42
2023-01-19T01:48:28.178Z,24.20
2023-01-19T01:51:21.119Z,26.33
2023-01-19T01:53:52.871Z,24.00
2023-01-19T01:56:27.523Z,23.98
2023-01-19T01:58:55.016Z,24.77
2023-01-19T02:01:41.007Z,23.67
2023-01-19T02:04:08.375Z,22.42
2023-01-19T02:06:54.329Z,20.15
2023-01-19T02:09:41.220Z,26.38
2023-01-19T02:12:27.509Z,22.55
2023-01-19T02:14:55.534Z,22.67
2023-01-19T02:17:27.258Z,21.08
2023-01-19T02:19:54.578Z,22.75
2023-01-19T02:22:35.923Z,18.13
2023-01-19T02:25:07.032Z,19.77
2023-01-19T02:27:34.964Z,19.52
2023-01-19T02:30:03.830Z,19.90
2023-01-19T02:32:31.724Z,17.17
2023-01-19T02:34:59.011Z,23.50
2023-01-19T02:37:30.193Z,26.52
2023-01-19T02:40:01.835Z,20.80
2023-01-19T02:45:09.534Z,19.33
2023-01-19T02:47:41.010Z,19.17
2023-01-19T02:50:39.335Z,19.38
2023-01-19T02:53:38.636Z,18.40
2023-01-19T02:56:25.009Z,17.42
2023-01-19T02:59:16.766Z,15.57
2023-01-19T03:02:16.604Z,16.25
2023-01-19T03:05:00.564Z,17.85
2023-01-19T03:08:12.572Z,14.55
2023-01-19T03:10:54.515Z,17.60
2023-01-19T03:13:51.951Z,15.77
2023-01-19T03:16:41.392Z,15.45
2023-01-19T03:19:27.632Z,16.25
2023-01-19T03:22:00.486Z,15.13
2023-01-19T03:24:31.734Z,18.27
2023-01-19T03:27:04.596Z,14.43
2023-01-19T03:29:37.236Z,13.07
2023-01-19T03:32:09.360Z,15.90
2023-01-19T03:34:38.893Z,11.52
2023-01-19T03:37:09.566Z,14.40
2023-01-19T03:39:37.405Z,11.63
2023-01-19T03:42:14.776Z,12.65
2023-01-19T03:44:44.438Z,12.77
2023-01-19T03:47:14.609Z,12.07
2023-01-19T03:49:44.501Z,12.30
2023-01-19T03:52:12.976Z,13.98
2023-01-19T03:54:41.158Z,14.90
2023-01-19T03:57:08.936Z,12.48
2023-01-19T03:59:36.500Z,11.80
2023-01-19T04:02:04.342Z,8.18
2023-01-19T04:04:31.615Z,10.20
2023-01-19T04:06:59.369Z,10.35
2023-01-19T04:09:27.252Z,12.57
2023-01-19T04:11:55.976Z,11.68
2023-01-19T04:14:23.442Z,10.40
2023-01-19T04:16:51.334Z,9.02
2023-01-19T04:19:18.863Z,12.32
2023-01-19T04:21:49.765Z,12.57
2023-01-19T04:24:18.020Z,9.35
2023-01-19T04:26:45.605Z,10.63
2023-01-19T04:29:14.157Z,10.80
2023-01-19T04:31:41.821Z,10.15
2023-01-19T04:34:09.063Z,10.10
2023-01-19T04:36:36.597Z,10.93
2023-01-19T04:39:05.105Z,12.02
2023-01-19T04:41:32.705Z,11.77
2023-01-19T04:44:00.584Z,12.30
2023-01-19T04:46:28.316Z,10.57
2023-01-19T04:48:55.543Z,9.25
2023-01-19T04:51:23.164Z,7.53
2023-01-19T04:53:50.398Z,9.02
2023-01-19T04:56:17.923Z,9.55
2023-01-19T04:58:45.156Z,8.82
2023-01-19T05:01:12.972Z,12.45
2023-01-19T05:03:40.439Z,11.40
2023-01-19T05:06:08.231Z,12.32
2023-01-19T05:08:35.472Z,12.43
2023-01-19T05:11:03.199Z,9.68
2023-01-19T05:13:30.549Z,10.98
2023-01-19T05:15:58.162Z,11.20
2023-01-19T05:18:25.418Z,12.07
2023-01-19T05:20:53.018Z,12.57
2023-01-19T05:23:20.226Z,11.65
2023-01-19T05:25:47.866Z,12.20
2023-01-19T05:28:15.419Z,10.05
2023-01-19T05:30:43.172Z,8.98
2023-01-19T05:33:10.447Z,12.73
2023-01-19T05:35:37.975Z,10.07
2023-01-19T05:38:05.181Z,9.98
2023-01-19T05:40:32.804Z,9.90
2023-01-19T05:43:01.452Z,9.32
2023-01-19T05:45:29.378Z,9.65
2023-01-19T05:47:57.062Z,11.40
2023-01-19T05:50:25.398Z,12.75
2023-01-19T05:52:55.442Z,12.77
2023-01-19T05:55:23.088Z,13.98
2023-01-19T05:57:50.288Z,11.70
2023-01-19T06:00:18.380Z,11.02
2023-01-19T06:02:48.490Z,13.40
2023-01-19T06:05:17.237Z,11.90
2023-01-19T06:07:44.497Z,14.20
2023-01-19T06:10:12.083Z,14.00
2023-01-19T06:12:41.066Z,12.10
2023-01-19T06:15:08.860Z,16.55
2023-01-19T06:17:37.007Z,18.58
2023-01-19T06:20:05.422Z,17.83
2023-01-19T06:22:33.135Z,14.93
2023-01-19T06:25:00.715Z,16.83
2023-01-19T06:27:27.961Z,11.65
2023-01-19T06:29:55.475Z,12.70
2023-01-19T06:32:22.783Z,17.27
2023-01-19T06:34:51.444Z,13.35
2023-01-19T06:37:19.966Z,11.60
2023-01-19T06:39:47.491Z,12.77
2023-01-19T06:42:14.767Z,13.18
2023-01-19T06:44:47.519Z,13.90
2023-01-19T06:47:17.444Z,18.70
2023-01-19T06:49:45.184Z,14.43
2023-01-19T06:52:16.162Z,14.65
2023-01-19T06:54:45.571Z,16.70
2023-01-19T06:57:14.024Z,12.60
2023-01-19T06:59:41.852Z,16.75
2023-01-19T07:02:26.570Z,13.23
2023-01-19T07:04:56.693Z,18.42
2023-01-19T07:07:24.038Z,17.33
2023-01-19T07:09:54.123Z,15.90
2023-01-19T07:12:23.047Z,17.35
2023-01-19T07:14:50.744Z,12.93
2023-01-19T07:17:18.285Z,16.42
2023-01-19T07:19:46.949Z,12.55
2023-01-19T07:22:14.375Z,16.90
2023-01-19T07:24:42.872Z,17.10
2023-01-19T07:27:11.683Z,19.50
2023-01-19T07:29:39.989Z,23.75
2023-01-19T07:32:07.851Z,19.30
2023-01-19T07:34:36.034Z,17.80
2023-01-19T07:37:04.529Z,17.67
2023-01-19T07:39:32.212Z,16.75
2023-01-19T07:41:59.870Z,18.15
2023-01-19T07:44:27.689Z,16.20
2023-01-19T07:46:54.981Z,19.85
2023-01-19T07:49:22.515Z,17.58
2023-01-19T07:51:49.969Z,20.30
2023-01-19T07:54:17.709Z,24.35
2023-01-19T07:56:44.946Z,23.20
2023-01-19T07:59:12.588Z,25.17
2023-01-19T08:01:40.037Z,22.85
2023-01-19T08:04:07.606Z,26.05
2023-01-19T08:06:37.402Z,24.35
2023-01-19T08:09:06.971Z,23.17
2023-01-19T08:11:35.249Z,34.38
2023-01-19T08:14:02.806Z,31.52
2023-01-19T08:16:30.215Z,29.17
2023-01-19T08:18:57.785Z,29.50
2023-01-19T08:21:25.129Z,23.85
2023-01-19T08:23:54.560Z,28.58
2023-01-19T08:26:28.045Z,35.33
2023-01-19T08:29:00.602Z,28.23
2023-01-19T08:31:28.433Z,27.90
2023-01-19T08:33:56.116Z,29.08
2023-01-19T08:36:25.100Z,22.85
2023-01-19T08:38:53.240Z,28.80
2023-01-19T08:41:20.704Z,22.08
2023-01-19T08:43:48.960Z,24.65
2023-01-19T08:46:17.703Z,18.65
2023-01-19T08:48:45.476Z,22.67
2023-01-19T08:51:12.936Z,19.70
2023-01-19T08:53:41.504Z,16.33
2023-01-19T08:56:12.666Z,20.23
2023-01-19T08:58:46.694Z,17.08
2023-01-19T09:01:22.384Z,18.02
2023-01-19T09:03:50.199Z,18.33
2023-01-19T09:06:18.588Z,17.65
2023-01-19T09:08:47.240Z,17.30
2023-01-19T09:11:17.293Z,19.77
2023-01-19T09:13:45.040Z,20.05
2023-01-19T09:16:13.494Z,19.67
2023-01-19T09:18:41.767Z,22.00
2023-01-19T09:21:09.455Z,21.25
2023-01-19T09:23:37.038Z,19.70
2023-01-19T09:26:06.136Z,17.33
2023-01-19T09:28:34.261Z,18.00
2023-01-19T09:31:06.708Z,17.55
2023-01-19T09:33:35.914Z,19.55
2023-01-19T09:36:03.351Z,22.70
2023-01-19T09:38:34.151Z,19.40
2023-01-19T09:41:01.814Z,16.33
2023-01-19T09:43:36.498Z,16.75
2023-01-19T09:46:20.329Z,18.08
2023-01-19T09:49:04.884Z,18.58
2023-01-19T09:51:39.513Z,15.80
2023-01-19T09:54:41.105Z,16.10
2023-01-19T09:57:12.200Z,14.05
2023-01-19T09:59:39.897Z,15.68
2023-01-19T10:02:31.755Z,15.32
2023-01-19T10:07:53.370Z,16.40
2023-01-19T10:10:25.097Z,12.63
2023-01-19T10:13:06.166Z,15.02
2023-01-19T10:15:36.787Z,15.53
2023-01-19T10:18:10.082Z,13.02
2023-01-19T10:20:50.207Z,15.70
2023-01-19T10:23:34.964Z,16.10
2023-01-19T10:26:09.065Z,11.80
2023-01-19T10:28:38.939Z,15.05
2023-01-19T10:31:09.572Z,13.65
2023-01-19T10:33:38.377Z,12.43
2023-01-19T10:36:18.868Z,14.30
2023-01-19T10:38:47.538Z,15.95
2023-01-19T10:41:20.453Z,14.27
2023-01-19T10:43:48.214Z,11.70
2023-01-19T10:46:29.965Z,8.82
2023-01-19T10:48:57.580Z,11.93
2023-01-19T10:51:25.174Z,12.00
2023-01-19T10:54:02.719Z,15.23
2023-01-19T10:56:38.576Z,16.08
2023-01-19T10:59:07.479Z,15.35
2023-01-19T11:01:38.273Z,13.02
2023-01-19T11:04:29.030Z,14.15
2023-01-19T11:07:19.370Z,11.18
2023-01-19T11:09:47.672Z,16.23
2023-01-19T11:12:23.750Z,18.10
2023-01-19T11:14:51.790Z,14.85
2023-01-19T11:17:23.425Z,12.23
2023-01-19T11:19:59.640Z,10.80
2023-01-19T11:22:33.202Z,9.02
2023-01-19T11:25:03.794Z,7.63
2023-01-19T11:27:36.489Z,8.52
2023-01-19T11:30:19.059Z,9.70
2023-01-19T11:32:49.239Z,10.57
2023-01-19T11:35:49.999Z,11.45
2023-01-19T11:38:20.026Z,8.35
2023-01-19T11:40:54.465Z,8.57
2023-01-19T11:43:24.839Z,9.20
2023-01-19T11:45:52.439Z,9.52
2023-01-19T11:48:31.460Z,8.38
2023-01-19T11:51:02.648Z,9.68
2023-01-19T11:53:34.299Z,6.50
2023-01-19T11:56:10.343Z,11.05
2023-01-19T11:58:48.329Z,6.95
2023-01-19T12:01:34.299Z,8.07
2023-01-19T12:04:13.210Z,7.50
2023-01-19T12:06:48.567Z,12.77
2023-01-19T12:09:27.047Z,11.73
2023-01-19T12:12:03.966Z,11.40
2023-01-19T12:14:57.182Z,10.82
2023-01-19T12:17:29.315Z,9.32
2023-01-19T12:20:05.827Z,10.02
2023-01-19T12:22:42.355Z,11.68
2023-01-19T12:25:22.313Z,15.77
2023-01-19T12:27:51.634Z,9.05
2023-01-19T12:30:28.306Z,13.15
2023-01-19T12:33:22.058Z,10.43
2023-01-19T12:36:01.128Z,12.90
2023-01-19T12:38:40.437Z,16.27
2023-01-19T12:41:20.860Z,9.82
2023-01-19T12:43:49.775Z,10.80
2023-01-19T12:46:30.910Z,14.00
2023-01-19T12:49:24.287Z,11.85
2023-01-19T12:52:13.694Z,12.73
2023-01-19T12:54:55.286Z,12.75
2023-01-19T12:57:31.819Z,11.90
2023-01-19T13:00:02.097Z,12.40
2023-01-19T13:02:41.984Z,18.27
2023-01-19T13:05:15.165Z,14.70
2023-01-19T13:08:07.798Z,16.30
2023-01-19T13:10:59.568Z,13.10
2023-01-19T13:13:36.514Z,13.48
2023-01-19T13:16:19.314Z,13.90
2023-01-19T13:18:53.055Z,14.18
2023-01-19T13:21:44.800Z,16.23
2023-01-19T13:24:17.913Z,14.75
2023-01-19T13:26:54.740Z,13.35
2023-01-19T13:29:30.994Z,17.05
2023-01-19T13:32:04.275Z,12.15
2023-01-19T13:34:40.242Z,13.52
2023-01-19T13:37:17.141Z,13.38
2023-01-19T13:39:49.039Z,18.27
2023-01-19T13:42:18.595Z,16.27
2023-01-19T13:44:52.460Z,15.55
2023-01-19T13:47:24.577Z,19.35
2023-01-19T13:49:56.646Z,16.75
2023-01-19T13:52:30.027Z,15.43
2023-01-19T13:55:02.909Z,16.85
2023-01-19T13:57:42.127Z,16.15
2023-01-19T14:00:12.081Z,16.00
2023-01-19T14:02:55.838Z,16.38
2023-01-19T14:05:29.773Z,15.98
2023-01-19T14:08:12.446Z,16.55
2023-01-19T14:10:46.411Z,21.30
2023-01-19T14:13:22.710Z,18.88
2023-01-19T14:15:52.521Z,22.27
2023-01-19T14:18:19.787Z,16.63
2023-01-19T14:20:58.311Z,18.02
2023-01-19T14:23:58.024Z,20.80
2023-01-19T14:26:37.581Z,17.23
2023-01-19T14:29:33.124Z,18.83
2023-01-19T14:32:00.926Z,23.20
2023-01-19T14:34:46.182Z,18.20
2023-01-19T14:37:16.757Z,24.33
2023-01-19T14:39:46.788Z,21.40
2023-01-19T14:42:25.285Z,19.73
2023-01-19T14:44:55.181Z,20.58
2023-01-19T14:47:41.731Z,26.65
2023-01-19T14:50:25.402Z,21.05
2023-01-19T14:53:00.804Z,19.58
2023-01-19T14:55:51.098Z,24.50
2023-01-19T14:58:20.998Z,22.73
2023-01-19T15:00:49.756Z,25.75
2023-01-19T15:03:17.363Z,22.75
2023-01-19T15:05:47.037Z,23.73
2023-01-19T15:08:17.769Z,22.02
2023-01-19T15:10:45.944Z,25.08
2023-01-19T15:13:22.070Z,28.73
2023-01-19T15:15:50.398Z,29.33
2023-01-19T15:18:25.104Z,32.47
2023-01-19T15:20:53.272Z,29.25
2023-01-19T15:23:21.065Z,29.45
2023-01-19T15:25:49.844Z,30.27
2023-01-19T15:28:19.469Z,31.25
2023-01-19T15:30:47.026Z,33.67
2023-01-19T15:33:21.202Z,33.80
2023-01-19T15:35:48.998Z,30.67
2023-01-19T15:38:16.590Z,33.80
2023-01-19T15:40:43.963Z,38.85
2023-01-19T15:43:11.698Z,36.08
2023-01-19T15:45:43.261Z,39.17
2023-01-19T15:48:12.138Z,39.25
2023-01-19T15:50:41.806Z,36.15
2023-01-19T15:53:18.418Z,38.58
2023-01-19T15:55:49.986Z,41.05
2023-01-19T15:58:18.627Z,41.35
2023-01-19T16:00:46.291Z,46.80
2023-01-19T16:03:13.951Z,38.17
2023-01-19T16:05:43.238Z,51.95
2023-01-19T16:08:11.893Z,44.58
2023-01-19T16:10:40.461Z,46.05
2023-01-19T16:13:09.583Z,55.08
2023-01-19T16:15:37.816Z,62.17
2023-01-19T16:18:06.214Z,65.68
2023-01-19T16:20:33.485Z,69.25
2023-01-19T16:23:16.263Z,73.68
2023-01-19T16:25:43.739Z,70.85
2023-01-19T16:28:11.363Z,70.45
2023-01-19T16:30:38.782Z,75.55
2023-01-19T16:33:06.410Z,71.35
2023-01-19T16:35:33.825Z,67.30
2023-01-19T16:38:01.409Z,70.85
2023-01-19T16:40:28.702Z,78.05
2023-01-19T16:42:56.246Z,87.55
2023-01-19T16:45:23.573Z,80.25
2023-01-19T16:47:52.336Z,82.55
2023-01-19T16:50:19.951Z,80.55
2023-01-19T16:52:47.482Z,89.93
2023-01-19T16:55:14.799Z,81.63
2023-01-19T16:57:42.683Z,90.53
2023-01-19T17:00:10.966Z,86.32
2023-01-19T17:02:38.642Z,85.78
2023-01-19T17:05:06.492Z,86.13
2023-01-19T17:07:34.105Z,87.15
2023-01-19T17:10:01.485Z,90.72
2023-01-19T17:12:30.777Z,89.95
2023-01-19T17:14:59.371Z,95.55
2023-01-19T17:17:26.931Z,96.05
2023-01-19T17:19:54.219Z,89.40
2023-01-19T17:22:21.892Z,104.60
2023-01-19T17:24:49.412Z,98.38
2023-01-19T17:27:17.373Z,93.13
2023-01-19T17:29:44.721Z,92.45
2023-01-19T17:32:12.240Z,95.90
2023-01-19T17:34:39.557Z,94.90
2023-01-19T17:37:07.751Z,95.35
2023-01-19T17:39:35.017Z,91.93
2023-01-19T17:42:02.696Z,99.22
2023-01-19T17:44:29.971Z,86.82
2023-01-19T17:46:59.820Z,98.75
2023-01-19T17:49:27.379Z,105.68
2023-01-19T17:51:56.018Z,94.30
2023-01-19T17:54:23.327Z,96.28
2023-01-19T17:56:51.062Z,96.38
2023-01-19T17:59:18.321Z,93.97
2023-01-19T18:01:46.516Z,90.43
2023-01-19T18:04:13.961Z,95.32
2023-01-19T18:06:41.559Z,103.53
2023-01-19T18:09:09.318Z,95.40
2023-01-19T18:11:37.028Z,95.22
2023-01-19T18:14:05.501Z,92.25
2023-01-19T18:16:33.424Z,94.78
2023-01-19T18:19:00.819Z,90.57
2023-01-19T18:21:28.967Z,93.75
2023-01-19T18:24:05.331Z,103.05
2023-01-19T18:26:35.151Z,101.45
2023-01-19T18:29:02.578Z,95.88
2023-01-19T18:31:30.525Z,108.25
2023-01-19T18:33:57.804Z,102.57
2023-01-19T18:36:25.656Z,105.93
2023-01-19T18:38:53.687Z,109.78
2023-01-19T18:41:21.855Z,90.95
2023-01-19T18:43:49.457Z,98.38
2023-01-19T18:46:17.359Z,96.18
2023-01-19T18:48:44.781Z,93.55
2023-01-19T18:51:14.477Z,95.85
2023-01-19T18:53:42.220Z,102.55
2023-01-19T18:56:13.271Z,100.70
2023-01-19T18:58:40.882Z,93.95
2023-01-19T19:01:39.052Z,91.15
2023-01-19T19:04:07.246Z,88.25
2023-01-19T19:06:35.870Z,84.60
2023-01-19T19:09:03.573Z,106.28
2023-01-19T19:11:31.208Z,100.90
2023-01-19T19:14:01.220Z,103.35
2023-01-19T19:16:30.032Z,112.65
2023-01-19T19:18:58.945Z,110.15
2023-01-19T19:21:26.732Z,102.75
2023-01-19T19:23:56.405Z,110.45
2023-01-19T19:26:25.890Z,102.45
2023-01-19T19:28:53.166Z,111.72
2023-01-19T19:31:23.143Z,109.15
2023-01-19T19:33:51.382Z,121.90
2023-01-19T19:36:20.660Z,122.68
2023-01-19T19:38:50.727Z,117.93
2023-01-19T19:41:29.081Z,108.18
2023-01-19T19:43:56.421Z,111.10
2023-01-19T19:46:24.756Z,125.75
2023-01-19T19:48:53.430Z,122.47
2023-01-19T19:51:27.437Z,127.93
2023-01-19T19:53:59.820Z,116.78
2023-01-19T19:56:29.950Z,120.35
2023-01-19T19:58:59.510Z,121.47
2023-01-19T20:01:32.553Z,122.82
2023-01-19T20:04:07.529Z,134.73
2023-01-19T20:06:39.017Z,126.50
2023-01-19T20:09:09.232Z,117.55
2023-01-19T20:11:37.916Z,118.10
2023-01-19T20:14:10.544Z,123.32
2023-01-19T20:16:38.743Z,107.03
2023-01-19T20:19:06.728Z,112.40
2023-01-19T20:21:37.205Z,113.75
2023-01-19T20:24:17.760Z,102.00
2023-01-19T20:26:51.675Z,113.30
2023-01-19T20:29:20.017Z,94.72
2023-01-19T20:31:51.322Z,108.78
2023-01-19T20:34:20.327Z,101.80
2023-01-19T20:36:49.855Z,106.63
2023-01-19T20:39:19.145Z,107.22
2023-01-19T20:41:49.017Z,104.95
2023-01-19T20:44:23.950Z,108.38
2023-01-19T20:46:52.793Z,111.20
2023-01-19T20:49:20.731Z,109.13
2023-01-19T20:51:48.465Z,101.07
2023-01-19T20:54:18.567Z,108.18
2023-01-19T20:56:46.127Z,112.47
2023-01-19T20:59:13.905Z,98.82
2023-01-19T21:01:42.598Z,97.03
2023-01-19T21:04:10.620Z,104.40
2023-01-19T21:06:38.871Z,100.82
2023-01-19T21:09:07.435Z,101.72
2023-01-19T21:11:36.502Z,99.20
2023-01-19T21:14:04.993Z,101.50
2023-01-19T21:16:34.648Z,97.07
2023-01-19T21:19:02.023Z,100.65
2023-01-19T21:21:31.489Z,96.50
2023-01-19T21:24:01.005Z,78.78
2023-01-19T21:26:33.580Z,77.15
2023-01-19T21:29:02.133Z,67.10
2023-01-19T21:31:31.022Z,57.25
2023-01-19T21:33:58.749Z,62.67
2023-01-19T21:36:26.892Z,58.38
2023-01-19T21:39:00.280Z,58.78
2023-01-19T21:41:30.155Z,60.28
2023-01-19T21:43:58.655Z,60.22
2023-01-19T21:46:29.297Z,59.13
2023-01-19T21:48:58.216Z,56.60
2023-01-19T21:51:26.263Z,68.00
2023-01-19T21:53:56.073Z,62.38
2023-01-19T21:56:23.728Z,61.10
2023-01-19T21:58:51.032Z,63.05
2023-01-19T22:01:18.957Z,60.65
2023-01-19T22:03:46.542Z,55.78
2023-01-19T22:06:14.988Z,49.20
2023-01-19T22:08:42.830Z,47.53
2023-01-19T22:11:12.209Z,43.95
2023-01-19T22:13:39.896Z,41.78
2023-01-19T22:16:11.056Z,41.78
2023-01-19T22:18:40.702Z,38.08
2023-01-19T22:21:11.878Z,40.42
2023-01-19T22:23:39.760Z,44.72
2023-01-19T22:26:08.449Z,42.22
2023-01-19T22:28:35.779Z,36.90
2023-01-19T22:31:05.776Z,38.10
2023-01-19T22:33:33.323Z,35.38
2023-01-19T22:36:26.600Z,31.70
2023-01-19T22:38:55.023Z,34.20
2023-01-19T22:41:25.144Z,32.08
2023-01-19T22:43:54.661Z,32.53
2023-01-19T22:46:27.548Z,37.15
2023-01-19T22:48:55.815Z,37.58
2023-01-19T22:51:24.538Z,33.33
2023-01-19T22:53:52.337Z,35.30
2023-01-19T22:56:22.750Z,33.55
2023-01-19T22:58:50.803Z,32.58
2023-01-19T23:01:24.318Z,30.83
2023-01-19T23:03:52.116Z,30.77
2023-01-19T23:06:22.897Z,30.95
2023-01-19T23:08:50.638Z,30.70
2023-01-19T23:11:21.511Z,32.22
2023-01-19T23:13:50.141Z,29.35
2023-01-19T23:16:18.471Z,33.85
2023-01-19T23:18:46.613Z,29.63
2023-01-19T23:21:16.949Z,28.05
2023-01-19T23:23:45.604Z,33.80
2023-01-19T23:26:18.600Z,29.42
2023-01-19T23:28:46.899Z,37.33
2023-01-19T23:31:22.279Z,31.58
2023-01-19T23:33:51.351Z,28.05
2023-01-19T23:36:19.834Z,30.27
2023-01-19T23:38:55.454Z,32.00
2023-01-19T23:41:24.126Z,28.60
2023-01-19T23:43:52.165Z,33.83
2023-01-19T23:46:20.879Z,32.47
2023-01-19T23:48:48.334Z,26.15
2023-01-19T23:51:19.531Z,30.52
2023-01-19T23:53:47.560Z,30.27
2023-01-19T23:56:25.037Z,29.65
2023-01-19T23:59:01.575Z,29.88
